Harvey, ND

6:32 PM CDT on July 20, 2017 (GMT -0500)
Harvey

Weather History for K5H4 - February, 2013

Change the Weather History Date:

Monday, February 25, 2013

  Actual Average (KRUG) Record (KRUG)
Temperature  
Mean Temperature 19 °F -  
Max Temperature 35 °F 29 °F 60 °F (1958)
Min Temperature 3 °F 8 °F -22 °F (1950)
Degree Days  
Heating Degree Days 46    
Moisture  
Dew Point 16 °F    
Average Humidity 77    
Maximum Humidity 100    
Minimum Humidity 64    
Precipitation  
Precipitation 0.00 in - - ()
Sea Level Pressure  
Sea Level Pressure 29.92 in    
Wind  
Wind Speed 10 mph (SW)    
Max Wind Speed 20 mph    
Max Gust Speed 26 mph    
Visibility 10 miles    
Events      
Averages and records for this station are not official NWS values.
T = Trace of Precipitation, MM = Missing Value Source: NWS Daily Summary

Daily Weather History Graph

Daily Weather History Graph

Search for Another Location

Airport or City:

Trip Planner

Search our weather history database for the weather conditions in past years. The results will help you decide how hot, cold, wet, or windy it might be!

Date:

Astronomy

Feb. 25, 2013 Rise Set
Actual Time 7:27 AM CST 6:18 PM CST
Civil Twilight 6:56 AM CST 6:49 PM CST
Nautical Twilight 6:20 AM CST 7:25 PM CST
Astronomical Twilight 5:44 AM CST 8:01 PM CST
Moon 6:38 PM CST (2/25) 6:55 AM CST (2/25)
Length of Visible Light 11h 53m
Length of Day
10h 51m
Full, 100% of the Moon is Illuminated
Feb 25
Full
Feb 25
Full
Mar 4
Last Quarter
Mar 11
New
Mar 19
First Quarter

Hourly Weather History & Observations

Time (CST) Temp. Windchill Dew Point Humidity Pressure Visibility Wind Dir Wind Speed Gust Speed Precip Events Conditions
12:15 AM 15.8 °F 6.1 °F 12.2 °F 86% 30.01 in 10.0 mi West 6.9 mph - N/A   Clear
12:35 AM 14.0 °F 3.9 °F 10.4 °F 86% 30.01 in 10.0 mi West 6.9 mph - N/A   Clear
12:55 AM 10.4 °F 0.8 °F 8.6 °F 92% 30.01 in 10.0 mi West 5.8 mph - N/A   Clear
1:15 AM 10.4 °F -1.5 °F 8.6 °F 92% 30.01 in 10.0 mi West 8.1 mph - N/A   Clear
1:35 AM 6.8 °F -3.5 °F 5.0 °F 92% 30.01 in 10.0 mi West 5.8 mph - N/A   Clear
1:55 AM 8.6 °F -2.6 °F 5.0 °F 85% 30.01 in 10.0 mi WSW 6.9 mph - N/A   Clear
2:15 AM 3.2 °F -9.1 °F -0.4 °F 85% 30.01 in 10.0 mi WSW 6.9 mph - N/A   Clear
2:35 AM 5.0 °F -9.1 °F 1.4 °F 85% 30.01 in 10.0 mi WSW 9.2 mph - N/A   Clear
2:55 AM 5.0 °F -8.1 °F 3.2 °F 92% 30.00 in 10.0 mi SW 8.1 mph - N/A   Clear
3:15 AM 5.0 °F -8.1 °F 1.4 °F 85% 30.00 in 10.0 mi SW 8.1 mph - N/A   Clear
3:35 AM 6.8 °F -5.9 °F 5.0 °F 92% 30.00 in 10.0 mi SW 8.1 mph - N/A   Clear
3:55 AM 5.0 °F -9.1 °F 5.0 °F 100% 29.99 in 10.0 mi SW 9.2 mph - N/A   Clear
4:15 AM 6.8 °F -6.9 °F 5.0 °F 92% 29.99 in 10.0 mi SW 9.2 mph - N/A   Clear
4:35 AM 6.8 °F -5.9 °F 6.8 °F 100% 29.99 in 10.0 mi SW 8.1 mph - N/A   Clear
4:55 AM 8.6 °F -3.7 °F 6.8 °F 92% 29.98 in 10.0 mi SW 8.1 mph - N/A   Clear
5:15 AM 6.8 °F -6.9 °F 5.0 °F 92% 29.98 in 10.0 mi WSW 9.2 mph - N/A   Clear
5:35 AM 8.6 °F -3.7 °F 6.8 °F 92% 29.98 in 10.0 mi SW 8.1 mph - N/A   Clear
6:15 AM 10.4 °F -1.5 °F 8.6 °F 92% 29.98 in 10.0 mi SW 8.1 mph - N/A   Clear
6:35 AM 10.4 °F -0.4 °F 8.6 °F 92% 29.97 in 10.0 mi SW 6.9 mph - N/A   Clear
6:55 AM 8.6 °F -1.3 °F 6.8 °F 92% 29.97 in 10.0 mi SSW 5.8 mph - N/A   Clear
7:15 AM 8.6 °F - 6.8 °F 92% 29.97 in 10.0 mi Calm Calm - N/A   Partly Cloudy
7:35 AM 8.6 °F 0.1 °F 6.8 °F 92% 29.97 in 10.0 mi SSW 4.6 mph - N/A   Scattered Clouds
7:55 AM 6.8 °F -4.8 °F 5.0 °F 92% 29.96 in 10.0 mi SSW 6.9 mph - N/A   Partly Cloudy
8:15 AM 10.4 °F -0.4 °F 6.8 °F 85% 29.96 in 10.0 mi South 6.9 mph - N/A   Clear
8:35 AM 14.0 °F 5.1 °F 8.6 °F 79% 29.96 in 10.0 mi South 5.8 mph - N/A   Clear
8:55 AM 14.0 °F 3.9 °F 8.6 °F 79% 29.95 in 10.0 mi SSW 6.9 mph - N/A   Clear
9:15 AM 19.4 °F 8.6 °F 10.4 °F 68% 29.95 in 10.0 mi South 9.2 mph - N/A   Clear
9:35 AM 23.0 °F 13.9 °F 14.0 °F 68% 29.95 in 10.0 mi SSW 8.1 mph - N/A   Clear
9:55 AM 23.0 °F 13.9 °F 14.0 °F 68% 29.95 in 10.0 mi SSW 8.1 mph - N/A   Clear
10:15 AM 26.6 °F 18.2 °F 15.8 °F 64% 29.94 in 10.0 mi SSW 8.1 mph - N/A   Clear
10:35 AM 28.4 °F 16.6 °F 19.4 °F 69% 29.93 in 10.0 mi SW 16.1 mph 19.6 mph N/A   Clear
10:55 AM 30.2 °F 18.5 °F 19.4 °F 64% 29.92 in 10.0 mi SW 17.3 mph 21.9 mph N/A   Clear
11:15 AM 30.2 °F 17.8 °F 19.4 °F 64% 29.92 in 10.0 mi SW 19.6 mph - N/A   Clear
11:35 AM 30.2 °F 18.1 °F 19.4 °F 64% 29.91 in 10.0 mi SW 18.4 mph 26.5 mph N/A   Clear
11:55 AM 32.0 °F 21.6 °F 21.2 °F 64% 29.91 in 10.0 mi SW 15.0 mph - N/A   Clear
12:15 PM 32.0 °F 21.2 °F 21.2 °F 64% 29.90 in 10.0 mi SW 16.1 mph - N/A   Clear
12:35 PM 32.0 °F 20.5 °F 21.2 °F 64% 29.89 in 10.0 mi SW 18.4 mph - N/A   Clear
12:55 PM 32.0 °F 20.5 °F 23.0 °F 69% 29.89 in 10.0 mi SW 18.4 mph - N/A   Clear
1:15 PM 32.0 °F 20.8 °F 23.0 °F 69% 29.88 in 10.0 mi SW 17.3 mph - N/A   Clear
1:35 PM 32.0 °F 20.5 °F 23.0 °F 69% 29.88 in 10.0 mi SW 18.4 mph - N/A   Clear
1:55 PM 32.0 °F 20.8 °F 23.0 °F 69% 29.88 in 10.0 mi SW 17.3 mph - N/A   Clear
2:15 PM 32.0 °F 22.1 °F 24.8 °F 75% 29.87 in 10.0 mi SW 13.8 mph - N/A   Clear
2:35 PM 32.0 °F 22.1 °F 24.8 °F 75% 29.87 in 10.0 mi SW 13.8 mph - N/A   Clear
2:55 PM 33.8 °F 25.8 °F 24.8 °F 70% 29.87 in 10.0 mi SW 10.4 mph - N/A   Clear
3:15 PM 33.8 °F 25.3 °F 26.6 °F 75% 29.87 in 10.0 mi SSW 11.5 mph - N/A   Clear
3:35 PM 35.6 °F 28.0 °F 26.6 °F 70% 29.86 in 10.0 mi SSW 10.4 mph - N/A   Clear
3:55 PM 35.6 °F 28.0 °F 26.6 °F 70% 29.86 in 10.0 mi SW 10.4 mph - N/A   Clear
4:15 PM 35.6 °F 27.1 °F 26.6 °F 70% 29.86 in 10.0 mi SSW 12.7 mph - N/A   Clear
4:55 PM 35.6 °F 26.6 °F 26.6 °F 70% 29.86 in 10.0 mi SSW 13.8 mph - N/A   Clear
5:15 PM 35.6 °F 27.5 °F 24.8 °F 65% 29.86 in 10.0 mi SSW 11.5 mph - N/A   Clear
5:35 PM 35.6 °F 28.0 °F 24.8 °F 65% 29.86 in 10.0 mi SSW 10.4 mph - N/A   Clear
5:55 PM 33.8 °F 27.0 °F 24.8 °F 70% 29.86 in 10.0 mi South 8.1 mph - N/A   Clear
6:15 PM 32.0 °F 24.8 °F 24.8 °F 75% 29.86 in 10.0 mi South 8.1 mph - N/A   Clear
6:35 PM 32.0 °F 23.0 °F 24.8 °F 75% 29.85 in 10.0 mi South 11.5 mph - N/A   Clear
6:55 PM 32.0 °F 23.0 °F 24.8 °F 75% 29.85 in 10.0 mi South 11.5 mph - N/A   Clear
7:15 PM 32.0 °F 22.5 °F 24.8 °F 75% 29.85 in 10.0 mi South 12.7 mph - N/A   Clear
7:35 PM 32.0 °F 22.1 °F 24.8 °F 75% 29.85 in 10.0 mi South 13.8 mph 19.6 mph N/A   Clear
8:15 PM 32.0 °F 21.2 °F 24.8 °F 75% 29.85 in 10.0 mi South 16.1 mph 20.7 mph N/A   Clear
8:55 PM 32.0 °F 20.5 °F 23.0 °F 69% 29.85 in 10.0 mi South 18.4 mph 24.2 mph N/A   Clear
9:15 PM 32.0 °F 21.6 °F 23.0 °F 69% 29.85 in 10.0 mi South 15.0 mph 24.2 mph N/A   Clear
9:35 PM 32.0 °F 21.2 °F 23.0 °F 69% 29.85 in 10.0 mi SSW 16.1 mph 24.2 mph N/A   Clear
9:55 PM 32.0 °F 21.2 °F 23.0 °F 69% 29.85 in 10.0 mi SSW 16.1 mph 21.9 mph N/A   Clear
10:15 PM 32.0 °F 21.2 °F 23.0 °F 69% 29.85 in 10.0 mi SSW 16.1 mph 21.9 mph N/A   Clear
10:35 PM 32.0 °F 21.6 °F 23.0 °F 69% 29.85 in 10.0 mi SSW 15.0 mph 19.6 mph N/A   Clear
10:55 PM 32.0 °F 21.2 °F 23.0 °F 69% 29.85 in 10.0 mi SSW 16.1 mph 23.0 mph N/A   Clear
11:15 PM 32.0 °F 21.6 °F 23.0 °F 69% 29.85 in 10.0 mi SSW 15.0 mph 20.7 mph N/A   Clear
11:35 PM 32.0 °F 23.0 °F 23.0 °F 69% 29.85 in 10.0 mi SSW 11.5 mph - N/A   Clear
11:55 PM 30.2 °F 20.2 °F 23.0 °F 75% 29.85 in 10.0 mi SSW 12.7 mph 17.3 mph N/A   Clear